Podhale (bahama Islands) — C6TX9 — position and weather

sailwx.info

Track history (hours):
 
Tides and Currents Weather Stations Pressure Air Temp Water Temp Dewpoint Dewpoint Depression Visibility Wind Speed Wind Dir Waves Ship Positions

Podhale (bahama Islands)

Last reported at 2016-Feb-10 07:13 UTC. Time now 2016-Feb-13 23:48 UTC.
Position N 46°35' E 031°33'.

Length 190 m; beam 24 m.

Type: Cargo ship. MMSI: 311831000.

Date/timePositionNaut miles runAvg speedWind from/ knotsBaromVisibWave heightAir tempDewpointWater temp
2016-Feb-10 07:13N 46°35' E 031°33'811.4
2016-Feb-10 06:33N 46°36' E 031°44'10 9.9
2016-Feb-10 05:33N 46°41' E 031°56'5 5.3
2016-Feb-10 04:33N 46°46' E 031°56'0 0.0
2016-Feb-10 03:33N 46°46' E 031°56'0 0.0
2016-Feb-10 02:33N 46°46' E 031°56'0 0.0
2016-Feb-10 01:33N 46°46' E 031°56'0 0.0
2016-Feb-10 00:34N 46°46' E 031°56'0 0.2
2016-Feb-09 23:34N 46°46' E 031°57'0 0.1
2016-Feb-09 22:34N 46°46' E 031°57'0 0.0
2016-Feb-09 21:34N 46°46' E 031°57'0 0.0
2016-Feb-09 20:34N 46°46' E 031°57'0 0.0
2016-Feb-09 19:33N 46°46' E 031°57'0 0.0
2016-Feb-09 18:34N 46°46' E 031°57'0 0.0
2016-Feb-09 17:34N 46°46' E 031°57'0 0.0
2016-Feb-09 16:34N 46°46' E 031°57'0 0.0
2016-Feb-09 15:34N 46°46' E 031°57'0 0.0
2016-Feb-09 14:33N 46°46' E 031°57'0 0.0
2016-Feb-09 13:34N 46°46' E 031°57'0 0.0
2016-Feb-09 12:34N 46°46' E 031°57'0 0.0
2016-Feb-09 11:34N 46°46' E 031°57'0 0.0
2016-Feb-09 10:34N 46°46' E 031°57'0 0.0
2016-Feb-09 09:34N 46°46' E 031°57'0 0.0
2016-Feb-09 08:34N 46°46' E 031°57'0 0.0
2016-Feb-09 07:34N 46°46' E 031°57'0 0.0
2016-Feb-09 06:34N 46°46' E 031°57'0 0.0
2016-Feb-09 05:34N 46°46' E 031°57'0 0.0
2016-Feb-09 04:34N 46°46' E 031°57'0 0.0
2016-Feb-09 03:34N 46°46' E 031°57'0 0.0
2016-Feb-09 02:34N 46°46' E 031°57'0 0.0
2016-Feb-09 01:34N 46°46' E 031°57'0 0.0
2016-Feb-09 00:34N 46°46' E 031°57'0 0.0
2016-Feb-08 23:33N 46°46' E 031°57'0 0.0
2016-Feb-08 22:33N 46°46' E 031°57'0 0.0
2016-Feb-08 21:34N 46°46' E 031°57'0 0.0
2016-Feb-08 20:34N 46°46' E 031°57'0 0.0
2016-Feb-08 19:34N 46°46' E 031°57'0 0.0
2016-Feb-08 18:34N 46°46' E 031°57'0 0.0
2016-Feb-08 17:33N 46°46' E 031°57'0 0.0
2016-Feb-08 16:34N 46°46' E 031°57'0 0.0
2016-Feb-08 15:34N 46°46' E 031°57'0 0.0
2016-Feb-08 14:33N 46°46' E 031°57'0 0.0
2016-Feb-08 13:34N 46°46' E 031°57'0 0.0
2016-Feb-08 12:34N 46°46' E 031°57'0 0.0
2016-Feb-08 11:34N 46°46' E 031°57'0 0.0
2016-Feb-08 10:34N 46°46' E 031°57'0 0.0
2016-Feb-08 09:33N 46°46' E 031°57'0 0.1
2016-Feb-08 08:34N 46°46' E 031°57'2 2.0
2016-Feb-08 07:34N 46°45' E 031°55'4 4.1
2016-Feb-08 06:34N 46°41' E 031°56'8 7.7
2016-Feb-08 05:34N 46°36' E 031°47'9 9.5
2016-Feb-08 04:33N 46°35' E 031°34'19 9.3
2016-Feb-08 02:31N 46°35' E 031°06'13 6.3
2016-Feb-08 00:31N 46°22' E 031°02'  
2016-Feb-04 02:09N 46°19' E 031°08'0 0.0
2016-Feb-04 01:33N 46°19' E 031°08'0 0.0
2016-Feb-04 00:33N 46°19' E 031°08'0 0.0
2016-Feb-03 23:31N 46°19' E 031°08'33612.0
2016-Feb-02 19:29N 40°57' E 028°59'6 6.2
2016-Feb-02 18:33N 40°52' E 028°55'1 0.7
2016-Feb-02 17:33N 40°52' E 028°54'1 0.6
2016-Feb-02 16:33N 40°51' E 028°55'0 0.4
2016-Feb-02 15:33N 40°51' E 028°56'0 0.4
2016-Feb-02 14:33N 40°51' E 028°56'2 1.6
2016-Feb-02 13:33N 40°51' E 028°54'0 0.2
2016-Feb-02 11:32N 40°51' E 028°54'0 0.1
2016-Feb-02 10:33N 40°50' E 028°54'0 0.2
2016-Feb-02 09:30N 40°50' E 028°54'0 0.4
2016-Feb-02 08:33N 40°50' E 028°55'1 0.5
2016-Feb-02 07:27N 40°50' E 028°56'143 8.8
2016-Feb-01 15:14N 39°59' E 026°01'1013.4
2016-Feb-01 14:31N 39°52' E 025°52'14712.9
2016-Feb-01 03:09N 37°44' E 024°18'  
Track history (hours):
 
Tides and Currents Weather Stations Pressure Air Temp Water Temp Dewpoint Dewpoint Depression Visibility Wind Speed Wind Dir Waves Ship Positions

Podhale (bahama Islands)

Last reported at 2016-Feb-10 07:13 UTC. Time now 2016-Feb-13 23:48 UTC.
Position N 46°35' E 031°33'.

Length 190 m; beam 24 m.

Type: Cargo ship. MMSI: 311831000.

Date/timePositionNaut miles runAvg speedWind from/ knotsBaromVisibWave heightAir tempDewpointWater temp
2016-Feb-10 07:13N 46°35' E 031°33'811.4
2016-Feb-10 06:33N 46°36' E 031°44'10 9.9
2016-Feb-10 05:33N 46°41' E 031°56'5 5.3
2016-Feb-10 04:33N 46°46' E 031°56'0 0.0
2016-Feb-10 03:33N 46°46' E 031°56'0 0.0
2016-Feb-10 02:33N 46°46' E 031°56'0 0.0
2016-Feb-10 01:33N 46°46' E 031°56'0 0.0
2016-Feb-10 00:34N 46°46' E 031°56'0 0.2
2016-Feb-09 23:34N 46°46' E 031°57'0 0.1
2016-Feb-09 22:34N 46°46' E 031°57'0 0.0
2016-Feb-09 21:34N 46°46' E 031°57'0 0.0
2016-Feb-09 20:34N 46°46' E 031°57'0 0.0
2016-Feb-09 19:33N 46°46' E 031°57'0 0.0
2016-Feb-09 18:34N 46°46' E 031°57'0 0.0
2016-Feb-09 17:34N 46°46' E 031°57'0 0.0
2016-Feb-09 16:34N 46°46' E 031°57'0 0.0
2016-Feb-09 15:34N 46°46' E 031°57'0 0.0
2016-Feb-09 14:33N 46°46' E 031°57'0 0.0
2016-Feb-09 13:34N 46°46' E 031°57'0 0.0
2016-Feb-09 12:34N 46°46' E 031°57'0 0.0
2016-Feb-09 11:34N 46°46' E 031°57'0 0.0
2016-Feb-09 10:34N 46°46' E 031°57'0 0.0
2016-Feb-09 09:34N 46°46' E 031°57'0 0.0
2016-Feb-09 08:34N 46°46' E 031°57'0 0.0
2016-Feb-09 07:34N 46°46' E 031°57'0 0.0
2016-Feb-09 06:34N 46°46' E 031°57'0 0.0
2016-Feb-09 05:34N 46°46' E 031°57'0 0.0
2016-Feb-09 04:34N 46°46' E 031°57'0 0.0
2016-Feb-09 03:34N 46°46' E 031°57'0 0.0
2016-Feb-09 02:34N 46°46' E 031°57'0 0.0
2016-Feb-09 01:34N 46°46' E 031°57'0 0.0
2016-Feb-09 00:34N 46°46' E 031°57'0 0.0
2016-Feb-08 23:33N 46°46' E 031°57'0 0.0
2016-Feb-08 22:33N 46°46' E 031°57'0 0.0
2016-Feb-08 21:34N 46°46' E 031°57'0 0.0
2016-Feb-08 20:34N 46°46' E 031°57'0 0.0
2016-Feb-08 19:34N 46°46' E 031°57'0 0.0
2016-Feb-08 18:34N 46°46' E 031°57'0 0.0
2016-Feb-08 17:33N 46°46' E 031°57'0 0.0
2016-Feb-08 16:34N 46°46' E 031°57'0 0.0
2016-Feb-08 15:34N 46°46' E 031°57'0 0.0
2016-Feb-08 14:33N 46°46' E 031°57'0 0.0
2016-Feb-08 13:34N 46°46' E 031°57'0 0.0
2016-Feb-08 12:34N 46°46' E 031°57'0 0.0
2016-Feb-08 11:34N 46°46' E 031°57'0 0.0
2016-Feb-08 10:34N 46°46' E 031°57'0 0.0
2016-Feb-08 09:33N 46°46' E 031°57'0 0.1
2016-Feb-08 08:34N 46°46' E 031°57'2 2.0
2016-Feb-08 07:34N 46°45' E 031°55'4 4.1
2016-Feb-08 06:34N 46°41' E 031°56'8 7.7
2016-Feb-08 05:34N 46°36' E 031°47'9 9.5
2016-Feb-08 04:33N 46°35' E 031°34'19 9.3
2016-Feb-08 02:31N 46°35' E 031°06'13 6.3
2016-Feb-08 00:31N 46°22' E 031°02'  
2016-Feb-04 02:09N 46°19' E 031°08'0 0.0
2016-Feb-04 01:33N 46°19' E 031°08'0 0.0
2016-Feb-04 00:33N 46°19' E 031°08'0 0.0
2016-Feb-03 23:31N 46°19' E 031°08'33612.0
2016-Feb-02 19:29N 40°57' E 028°59'6 6.2
2016-Feb-02 18:33N 40°52' E 028°55'1 0.7
2016-Feb-02 17:33N 40°52' E 028°54'1 0.6
2016-Feb-02 16:33N 40°51' E 028°55'0 0.4
2016-Feb-02 15:33N 40°51' E 028°56'0 0.4
2016-Feb-02 14:33N 40°51' E 028°56'2 1.6
2016-Feb-02 13:33N 40°51' E 028°54'0 0.2
2016-Feb-02 11:32N 40°51' E 028°54'0 0.1
2016-Feb-02 10:33N 40°50' E 028°54'0 0.2
2016-Feb-02 09:30N 40°50' E 028°54'0 0.4
2016-Feb-02 08:33N 40°50' E 028°55'1 0.5
2016-Feb-02 07:27N 40°50' E 028°56'143 8.8
2016-Feb-01 15:14N 39°59' E 026°01'1013.4
2016-Feb-01 14:31N 39°52' E 025°52'14712.9
2016-Feb-01 03:09N 37°44' E 024°18'  

Dump ship's entire track history